sensor_id;sensor_type;location;lat;lon;timestamp;temperature;humidity
610;DHT22;292;48.800;9.216;2022-12-10T00:00:13;4.90;77.30
610;DHT22;292;48.800;9.216;2022-12-10T00:02:43;4.90;77.30
610;DHT22;292;48.800;9.216;2022-12-10T00:05:10;4.90;77.30
610;DHT22;292;48.800;9.216;2022-12-10T00:07:38;4.90;77.10
610;DHT22;292;48.800;9.216;2022-12-10T00:10:07;4.90;77.10
610;DHT22;292;48.800;9.216;2022-12-10T00:12:36;4.90;77.10
610;DHT22;292;48.800;9.216;2022-12-10T00:15:08;4.90;77.10
610;DHT22;292;48.800;9.216;2022-12-10T00:17:40;4.90;77.10
610;DHT22;292;48.800;9.216;2022-12-10T00:20:13;4.90;77.00
610;DHT22;292;48.800;9.216;2022-12-10T00:32:52;4.90;76.80
610;DHT22;292;48.800;9.216;2022-12-10T00:35:19;4.90;76.80
610;DHT22;292;48.800;9.216;2022-12-10T00:37:47;4.90;76.80
610;DHT22;292;48.800;9.216;2022-12-10T00:40:14;4.90;76.80
610;DHT22;292;48.800;9.216;2022-12-10T00:42:41;4.80;76.80
610;DHT22;292;48.800;9.216;2022-12-10T00:45:09;4.80;76.80
610;DHT22;292;48.800;9.216;2022-12-10T00:47:37;4.80;76.80
610;DHT22;292;48.800;9.216;2022-12-10T00:50:07;4.90;76.80
610;DHT22;292;48.800;9.216;2022-12-10T00:52:35;4.80;76.80
610;DHT22;292;48.800;9.216;2022-12-10T00:55:02;4.80;76.80
610;DHT22;292;48.800;9.216;2022-12-10T00:57:30;4.80;76.80
610;DHT22;292;48.800;9.216;2022-12-10T00:59:57;4.80;76.80
610;DHT22;292;48.800;9.216;2022-12-10T01:02:24;4.80;76.80
610;DHT22;292;48.800;9.216;2022-12-10T01:04:52;4.70;76.70
610;DHT22;292;48.800;9.216;2022-12-10T01:07:26;4.70;76.80
610;DHT22;292;48.800;9.216;2022-12-10T01:09:53;4.70;76.80
610;DHT22;292;48.800;9.216;2022-12-10T01:12:22;4.70;76.80
610;DHT22;292;48.800;9.216;2022-12-10T01:14:50;4.70;77.00
610;DHT22;292;48.800;9.216;2022-12-10T01:17:17;4.70;77.00
610;DHT22;292;48.800;9.216;2022-12-10T01:19:47;4.70;77.00
610;DHT22;292;48.800;9.216;2022-12-10T01:22:15;4.70;77.00
610;DHT22;292;48.800;9.216;2022-12-10T01:24:43;4.70;77.00
610;DHT22;292;48.800;9.216;2022-12-10T01:27:12;4.70;77.00
610;DHT22;292;48.800;9.216;2022-12-10T01:29:40;4.70;77.00
610;DHT22;292;48.800;9.216;2022-12-10T01:32:07;4.70;77.00
610;DHT22;292;48.800;9.216;2022-12-10T01:34:35;4.70;77.10
610;DHT22;292;48.800;9.216;2022-12-10T01:37:02;4.70;77.10
610;DHT22;292;48.800;9.216;2022-12-10T01:39:29;4.70;77.00
610;DHT22;292;48.800;9.216;2022-12-10T01:42:00;4.60;77.10
610;DHT22;292;48.800;9.216;2022-12-10T01:44:57;4.60;77.10
610;DHT22;292;48.800;9.216;2022-12-10T01:47:24;4.60;77.10
610;DHT22;292;48.800;9.216;2022-12-10T01:49:51;4.60;77.10
610;DHT22;292;48.800;9.216;2022-12-10T01:52:19;4.60;77.30
610;DHT22;292;48.800;9.216;2022-12-10T01:54:46;4.60;77.30
610;DHT22;292;48.800;9.216;2022-12-10T01:57:18;4.50;77.30
610;DHT22;292;48.800;9.216;2022-12-10T01:59:48;4.50;77.40
610;DHT22;292;48.800;9.216;2022-12-10T02:02:24;4.50;77.30
610;DHT22;292;48.800;9.216;2022-12-10T02:05:08;4.50;77.30
610;DHT22;292;48.800;9.216;2022-12-10T02:08:02;4.50;77.30
610;DHT22;292;48.800;9.216;2022-12-10T02:10:43;4.50;77.30
610;DHT22;292;48.800;9.216;2022-12-10T02:13:19;4.50;77.30
610;DHT22;292;48.800;9.216;2022-12-10T02:15:52;4.50;77.30
610;DHT22;292;48.800;9.216;2022-12-10T02:18:26;4.50;77.30
610;DHT22;292;48.800;9.216;2022-12-10T02:20:57;4.50;77.30
610;DHT22;292;48.800;9.216;2022-12-10T02:23:34;4.50;77.10
610;DHT22;292;48.800;9.216;2022-12-10T02:26:09;4.50;77.30
610;DHT22;292;48.800;9.216;2022-12-10T02:28:46;4.50;77.30
610;DHT22;292;48.800;9.216;2022-12-10T02:31:19;4.50;77.30
610;DHT22;292;48.800;9.216;2022-12-10T02:33:51;4.50;77.30
610;DHT22;292;48.800;9.216;2022-12-10T02:36:21;4.50;77.10
610;DHT22;292;48.800;9.216;2022-12-10T02:38:56;4.60;77.30
610;DHT22;292;48.800;9.216;2022-12-10T02:41:33;4.60;77.30
610;DHT22;292;48.800;9.216;2022-12-10T02:44:07;4.60;77.10
610;DHT22;292;48.800;9.216;2022-12-10T02:46:39;4.60;77.00
610;DHT22;292;48.800;9.216;2022-12-10T02:49:11;4.60;77.00
610;DHT22;292;48.800;9.216;2022-12-10T02:51:40;4.50;77.10
610;DHT22;292;48.800;9.216;2022-12-10T02:57:14;4.60;77.10
610;DHT22;292;48.800;9.216;2022-12-10T02:59:51;4.50;77.00
610;DHT22;292;48.800;9.216;2022-12-10T03:02:34;4.50;77.00
610;DHT22;292;48.800;9.216;2022-12-10T03:05:13;4.60;77.00
610;DHT22;292;48.800;9.216;2022-12-10T03:07:47;4.50;77.00
610;DHT22;292;48.800;9.216;2022-12-10T03:10:32;4.60;77.00
610;DHT22;292;48.800;9.216;2022-12-10T03:13:40;4.60;77.00
610;DHT22;292;48.800;9.216;2022-12-10T03:16:41;4.50;77.00
610;DHT22;292;48.800;9.216;2022-12-10T03:19:03;4.60;77.00
610;DHT22;292;48.800;9.216;2022-12-10T03:21:32;4.50;77.00
610;DHT22;292;48.800;9.216;2022-12-10T03:24:00;4.60;77.00
610;DHT22;292;48.800;9.216;2022-12-10T03:26:30;4.60;77.00
610;DHT22;292;48.800;9.216;2022-12-10T03:29:00;4.60;76.80
610;DHT22;292;48.800;9.216;2022-12-10T03:31:32;4.60;76.80
610;DHT22;292;48.800;9.216;2022-12-10T03:34:05;4.60;76.80
610;DHT22;292;48.800;9.216;2022-12-10T03:36:34;4.60;76.80
610;DHT22;292;48.800;9.216;2022-12-10T03:39:05;4.60;77.00
610;DHT22;292;48.800;9.216;2022-12-10T03:41:33;4.60;77.00
610;DHT22;292;48.800;9.216;2022-12-10T03:44:00;4.60;77.00
610;DHT22;292;48.800;9.216;2022-12-10T03:46:29;4.60;77.00
610;DHT22;292;48.800;9.216;2022-12-10T03:48:58;4.60;77.00
610;DHT22;292;48.800;9.216;2022-12-10T03:51:27;4.60;76.80
610;DHT22;292;48.800;9.216;2022-12-10T03:53:55;4.60;77.00
610;DHT22;292;48.800;9.216;2022-12-10T03:56:23;4.50;76.70
610;DHT22;292;48.800;9.216;2022-12-10T03:58:51;4.50;76.70
610;DHT22;292;48.800;9.216;2022-12-10T04:01:18;4.50;77.00
610;DHT22;292;48.800;9.216;2022-12-10T04:03:45;4.50;77.00
610;DHT22;292;48.800;9.216;2022-12-10T04:06:15;4.50;76.70
610;DHT22;292;48.800;9.216;2022-12-10T04:08:45;4.50;76.70
610;DHT22;292;48.800;9.216;2022-12-10T04:11:14;4.40;76.50
610;DHT22;292;48.800;9.216;2022-12-10T04:13:45;4.40;76.70
610;DHT22;292;48.800;9.216;2022-12-10T04:16:31;4.30;77.00
610;DHT22;292;48.800;9.216;2022-12-10T04:19:01;4.30;77.10
610;DHT22;292;48.800;9.216;2022-12-10T04:21:30;4.30;77.30
610;DHT22;292;48.800;9.216;2022-12-10T04:24:19;4.30;77.30
610;DHT22;292;48.800;9.216;2022-12-10T04:27:06;4.30;77.30
610;DHT22;292;48.800;9.216;2022-12-10T04:29:34;4.30;77.30
610;DHT22;292;48.800;9.216;2022-12-10T04:32:02;4.30;77.30
610;DHT22;292;48.800;9.216;2022-12-10T04:34:31;4.30;77.10
610;DHT22;292;48.800;9.216;2022-12-10T04:37:00;4.30;77.10
610;DHT22;292;48.800;9.216;2022-12-10T04:39:31;4.30;77.10
610;DHT22;292;48.800;9.216;2022-12-10T04:41:59;4.30;77.30
610;DHT22;292;48.800;9.216;2022-12-10T04:44:29;4.30;77.00
610;DHT22;292;48.800;9.216;2022-12-10T04:46:57;4.20;77.00
610;DHT22;292;48.800;9.216;2022-12-10T04:49:24;4.10;77.30
610;DHT22;292;48.800;9.216;2022-12-10T04:51:52;4.20;77.30
610;DHT22;292;48.800;9.216;2022-12-10T04:54:20;4.20;77.30
610;DHT22;292;48.800;9.216;2022-12-10T04:56:52;4.20;77.30
610;DHT22;292;48.800;9.216;2022-12-10T04:59:23;4.20;77.30
610;DHT22;292;48.800;9.216;2022-12-10T05:01:50;4.20;77.10
610;DHT22;292;48.800;9.216;2022-12-10T05:04:18;4.20;77.30
610;DHT22;292;48.800;9.216;2022-12-10T05:06:48;4.20;77.30
610;DHT22;292;48.800;9.216;2022-12-10T05:09:16;4.20;77.30
610;DHT22;292;48.800;9.216;2022-12-10T05:11:43;4.20;77.10
610;DHT22;292;48.800;9.216;2022-12-10T05:14:14;4.20;77.30
610;DHT22;292;48.800;9.216;2022-12-10T05:16:42;4.20;77.30
610;DHT22;292;48.800;9.216;2022-12-10T05:19:10;4.10;77.30
610;DHT22;292;48.800;9.216;2022-12-10T05:21:38;4.10;77.40
610;DHT22;292;48.800;9.216;2022-12-10T05:24:23;4.10;77.50
610;DHT22;292;48.800;9.216;2022-12-10T05:26:50;4.10;77.50
610;DHT22;292;48.800;9.216;2022-12-10T05:29:23;4.10;77.50
610;DHT22;292;48.800;9.216;2022-12-10T05:31:50;4.10;77.50
610;DHT22;292;48.800;9.216;2022-12-10T05:34:17;4.10;77.50
610;DHT22;292;48.800;9.216;2022-12-10T05:36:46;4.10;77.70
610;DHT22;292;48.800;9.216;2022-12-10T05:39:13;4.10;77.70
610;DHT22;292;48.800;9.216;2022-12-10T05:41:40;4.10;77.70
610;DHT22;292;48.800;9.216;2022-12-10T05:44:09;4.10;77.70
610;DHT22;292;48.800;9.216;2022-12-10T05:46:40;4.10;77.80
610;DHT22;292;48.800;9.216;2022-12-10T05:49:07;4.10;77.80
610;DHT22;292;48.800;9.216;2022-12-10T05:51:36;4.10;77.80
610;DHT22;292;48.800;9.216;2022-12-10T05:54:05;4.10;77.70
610;DHT22;292;48.800;9.216;2022-12-10T05:56:35;4.10;77.80
610;DHT22;292;48.800;9.216;2022-12-10T05:59:03;4.10;78.10
610;DHT22;292;48.800;9.216;2022-12-10T06:01:33;4.10;78.10
610;DHT22;292;48.800;9.216;2022-12-10T06:04:04;4.10;77.80
610;DHT22;292;48.800;9.216;2022-12-10T06:06:34;4.00;78.10
610;DHT22;292;48.800;9.216;2022-12-10T06:09:02;4.00;77.80
610;DHT22;292;48.800;9.216;2022-12-10T06:11:32;4.00;78.10
610;DHT22;292;48.800;9.216;2022-12-10T06:14:00;4.00;78.30
610;DHT22;292;48.800;9.216;2022-12-10T06:16:29;4.00;78.40
610;DHT22;292;48.800;9.216;2022-12-10T06:18:57;4.00;78.30
610;DHT22;292;48.800;9.216;2022-12-10T06:21:27;4.00;78.40
610;DHT22;292;48.800;9.216;2022-12-10T06:23:54;4.00;78.40
610;DHT22;292;48.800;9.216;2022-12-10T06:26:25;4.00;78.40
610;DHT22;292;48.800;9.216;2022-12-10T06:28:54;4.00;78.40
610;DHT22;292;48.800;9.216;2022-12-10T06:31:22;4.00;78.40
610;DHT22;292;48.800;9.216;2022-12-10T06:33:53;3.90;78.40
610;DHT22;292;48.800;9.216;2022-12-10T06:36:21;3.90;78.40
610;DHT22;292;48.800;9.216;2022-12-10T06:38:53;3.90;78.30
610;DHT22;292;48.800;9.216;2022-12-10T06:41:26;3.90;78.30
610;DHT22;292;48.800;9.216;2022-12-10T06:44:01;3.90;78.30
610;DHT22;292;48.800;9.216;2022-12-10T06:46:42;3.90;78.40
610;DHT22;292;48.800;9.216;2022-12-10T06:49:10;3.90;78.40
610;DHT22;292;48.800;9.216;2022-12-10T06:51:39;3.90;78.40
610;DHT22;292;48.800;9.216;2022-12-10T06:54:28;3.90;78.40
610;DHT22;292;48.800;9.216;2022-12-10T06:56:55;3.90;78.40
610;DHT22;292;48.800;9.216;2022-12-10T06:59:22;3.90;78.40
610;DHT22;292;48.800;9.216;2022-12-10T07:01:52;3.90;78.30
610;DHT22;292;48.800;9.216;2022-12-10T07:04:21;3.90;78.40
610;DHT22;292;48.800;9.216;2022-12-10T07:06:48;3.90;78.60
610;DHT22;292;48.800;9.216;2022-12-10T07:09:19;3.90;78.60
610;DHT22;292;48.800;9.216;2022-12-10T07:11:48;3.90;78.40
610;DHT22;292;48.800;9.216;2022-12-10T07:14:16;3.90;78.30
610;DHT22;292;48.800;9.216;2022-12-10T07:16:44;3.80;78.30
610;DHT22;292;48.800;9.216;2022-12-10T07:19:12;3.80;78.40
610;DHT22;292;48.800;9.216;2022-12-10T07:21:41;3.80;78.60
610;DHT22;292;48.800;9.216;2022-12-10T07:24:11;3.80;78.60
610;DHT22;292;48.800;9.216;2022-12-10T07:26:41;3.80;78.60
610;DHT22;292;48.800;9.216;2022-12-10T07:29:13;3.70;78.70
610;DHT22;292;48.800;9.216;2022-12-10T07:31:41;3.70;78.60
610;DHT22;292;48.800;9.216;2022-12-10T07:34:09;3.70;78.70
610;DHT22;292;48.800;9.216;2022-12-10T07:36:37;3.70;78.60
610;DHT22;292;48.800;9.216;2022-12-10T07:39:12;3.70;78.60
610;DHT22;292;48.800;9.216;2022-12-10T07:41:48;3.70;78.70
610;DHT22;292;48.800;9.216;2022-12-10T07:44:21;3.70;78.60
610;DHT22;292;48.800;9.216;2022-12-10T07:49:52;3.70;78.60
610;DHT22;292;48.800;9.216;2022-12-10T07:50:15;3.70;78.60
610;DHT22;292;48.800;9.216;2022-12-10T07:52:42;3.70;78.40
610;DHT22;292;48.800;9.216;2022-12-10T07:55:09;3.70;78.40
610;DHT22;292;48.800;9.216;2022-12-10T07:57:38;3.80;78.60
610;DHT22;292;48.800;9.216;2022-12-10T08:00:08;3.80;78.40
610;DHT22;292;48.800;9.216;2022-12-10T08:02:35;3.80;78.60
610;DHT22;292;48.800;9.216;2022-12-10T08:05:02;3.80;78.40
610;DHT22;292;48.800;9.216;2022-12-10T08:07:29;3.80;78.30
610;DHT22;292;48.800;9.216;2022-12-10T08:09:57;3.70;78.30
610;DHT22;292;48.800;9.216;2022-12-10T08:12:24;3.80;78.40
610;DHT22;292;48.800;9.216;2022-12-10T08:14:53;3.70;78.30
610;DHT22;292;48.800;9.216;2022-12-10T08:17:20;3.70;78.60
610;DHT22;292;48.800;9.216;2022-12-10T08:19:47;3.80;78.60
610;DHT22;292;48.800;9.216;2022-12-10T08:22:14;3.80;78.60
610;DHT22;292;48.800;9.216;2022-12-10T08:24:41;3.80;78.60
610;DHT22;292;48.800;9.216;2022-12-10T08:27:09;3.80;78.60
610;DHT22;292;48.800;9.216;2022-12-10T08:29:36;3.80;78.60
610;DHT22;292;48.800;9.216;2022-12-10T08:32:07;3.80;78.70
610;DHT22;292;48.800;9.216;2022-12-10T08:34:34;3.80;78.70
610;DHT22;292;48.800;9.216;2022-12-10T08:37:01;3.80;78.70
610;DHT22;292;48.800;9.216;2022-12-10T08:39:28;3.90;78.60
610;DHT22;292;48.800;9.216;2022-12-10T08:41:56;3.90;78.60
610;DHT22;292;48.800;9.216;2022-12-10T08:44:24;3.90;78.60
610;DHT22;292;48.800;9.216;2022-12-10T08:46:51;4.00;78.60
610;DHT22;292;48.800;9.216;2022-12-10T08:49:19;4.00;78.60
610;DHT22;292;48.800;9.216;2022-12-10T08:51:46;4.00;78.40
610;DHT22;292;48.800;9.216;2022-12-10T08:54:13;4.00;78.40
610;DHT22;292;48.800;9.216;2022-12-10T08:56:40;4.00;78.40
610;DHT22;292;48.800;9.216;2022-12-10T08:59:08;4.00;78.30
610;DHT22;292;48.800;9.216;2022-12-10T09:01:35;4.10;78.30
610;DHT22;292;48.800;9.216;2022-12-10T09:04:03;4.10;78.10
610;DHT22;292;48.800;9.216;2022-12-10T09:06:32;4.10;78.10
610;DHT22;292;48.800;9.216;2022-12-10T09:09:03;4.10;78.10
610;DHT22;292;48.800;9.216;2022-12-10T09:11:32;4.10;78.10
610;DHT22;292;48.800;9.216;2022-12-10T09:14:00;4.10;77.80
610;DHT22;292;48.800;9.216;2022-12-10T09:16:29;4.10;77.80
610;DHT22;292;48.800;9.216;2022-12-10T09:18:56;4.10;77.70
610;DHT22;292;48.800;9.216;2022-12-10T09:21:24;4.10;77.70
610;DHT22;292;48.800;9.216;2022-12-10T09:23:53;4.10;77.50
610;DHT22;292;48.800;9.216;2022-12-10T09:26:20;4.10;77.40
610;DHT22;292;48.800;9.216;2022-12-10T09:28:48;4.10;77.40
610;DHT22;292;48.800;9.216;2022-12-10T09:31:16;4.20;77.30
610;DHT22;292;48.800;9.216;2022-12-10T09:33:44;4.10;77.10
610;DHT22;292;48.800;9.216;2022-12-10T09:36:13;4.10;77.00
610;DHT22;292;48.800;9.216;2022-12-10T09:38:42;4.10;77.00
610;DHT22;292;48.800;9.216;2022-12-10T09:41:22;4.10;77.00
610;DHT22;292;48.800;9.216;2022-12-10T09:43:59;4.20;76.80
610;DHT22;292;48.800;9.216;2022-12-10T09:46:41;4.20;76.80
610;DHT22;292;48.800;9.216;2022-12-10T09:49:17;4.20;76.70
610;DHT22;292;48.800;9.216;2022-12-10T09:51:47;4.20;76.50
610;DHT22;292;48.800;9.216;2022-12-10T09:54:19;4.20;76.40
610;DHT22;292;48.800;9.216;2022-12-10T09:56:59;4.10;76.10
610;DHT22;292;48.800;9.216;2022-12-10T09:59:46;4.10;76.40
610;DHT22;292;48.800;9.216;2022-12-10T10:02:21;4.10;76.40
610;DHT22;292;48.800;9.216;2022-12-10T10:04:49;4.10;76.20
610;DHT22;292;48.800;9.216;2022-12-10T10:07:20;4.20;76.20
610;DHT22;292;48.800;9.216;2022-12-10T10:09:48;4.20;76.10
610;DHT22;292;48.800;9.216;2022-12-10T10:12:18;4.20;76.00
610;DHT22;292;48.800;9.216;2022-12-10T10:14:45;4.20;75.80
610;DHT22;292;48.800;9.216;2022-12-10T10:17:18;4.20;75.80
610;DHT22;292;48.800;9.216;2022-12-10T10:19:47;4.10;75.50
610;DHT22;292;48.800;9.216;2022-12-10T10:22:15;4.10;75.80
610;DHT22;292;48.800;9.216;2022-12-10T10:24:44;4.10;75.70
610;DHT22;292;48.800;9.216;2022-12-10T10:27:14;4.10;75.70
610;DHT22;292;48.800;9.216;2022-12-10T10:29:47;4.20;75.50
610;DHT22;292;48.800;9.216;2022-12-10T10:32:17;4.20;75.50
610;DHT22;292;48.800;9.216;2022-12-10T10:34:46;4.20;75.20
610;DHT22;292;48.800;9.216;2022-12-10T10:37:22;4.20;75.20
610;DHT22;292;48.800;9.216;2022-12-10T10:39:51;4.30;75.00
610;DHT22;292;48.800;9.216;2022-12-10T10:42:27;4.30;75.00
610;DHT22;292;48.800;9.216;2022-12-10T10:44:58;4.30;74.80
610;DHT22;292;48.800;9.216;2022-12-10T10:47:28;4.30;74.80
610;DHT22;292;48.800;9.216;2022-12-10T10:49:56;4.30;74.80
610;DHT22;292;48.800;9.216;2022-12-10T10:52:28;4.30;74.70
610;DHT22;292;48.800;9.216;2022-12-10T10:54:57;4.30;74.70
610;DHT22;292;48.800;9.216;2022-12-10T10:57:27;4.30;74.50
610;DHT22;292;48.800;9.216;2022-12-10T11:00:10;4.30;74.70
610;DHT22;292;48.800;9.216;2022-12-10T11:02:45;4.20;74.80
610;DHT22;292;48.800;9.216;2022-12-10T11:05:20;4.20;74.70
610;DHT22;292;48.800;9.216;2022-12-10T11:07:57;4.10;75.00
610;DHT22;292;48.800;9.216;2022-12-10T11:10:26;4.10;75.40
610;DHT22;292;48.800;9.216;2022-12-10T11:12:56;4.10;75.40
610;DHT22;292;48.800;9.216;2022-12-10T11:15:33;4.10;75.70
610;DHT22;292;48.800;9.216;2022-12-10T11:18:10;4.10;75.50
610;DHT22;292;48.800;9.216;2022-12-10T11:20:58;4.10;75.50
610;DHT22;292;48.800;9.216;2022-12-10T11:23:31;4.20;75.70
610;DHT22;292;48.800;9.216;2022-12-10T11:26:09;4.20;75.20
610;DHT22;292;48.800;9.216;2022-12-10T11:28:48;4.10;75.70
610;DHT22;292;48.800;9.216;2022-12-10T11:31:35;4.10;75.80
610;DHT22;292;48.800;9.216;2022-12-10T11:34:12;4.10;75.50
610;DHT22;292;48.800;9.216;2022-12-10T11:36:51;4.20;75.50
610;DHT22;292;48.800;9.216;2022-12-10T11:39:38;4.20;75.50
610;DHT22;292;48.800;9.216;2022-12-10T11:42:16;4.30;75.20
610;DHT22;292;48.800;9.216;2022-12-10T11:44:53;4.30;75.20
610;DHT22;292;48.800;9.216;2022-12-10T11:47:43;4.30;75.20
610;DHT22;292;48.800;9.216;2022-12-10T11:50:20;4.40;75.20
610;DHT22;292;48.800;9.216;2022-12-10T11:53:13;4.40;75.00
610;DHT22;292;48.800;9.216;2022-12-10T11:55:48;4.30;75.10
610;DHT22;292;48.800;9.216;2022-12-10T11:58:32;4.40;75.10
610;DHT22;292;48.800;9.216;2022-12-10T12:01:09;4.40;74.80
610;DHT22;292;48.800;9.216;2022-12-10T12:04:04;4.30;74.70
610;DHT22;292;48.800;9.216;2022-12-10T12:09:52;4.30;74.70
610;DHT22;292;48.800;9.216;2022-12-10T12:12:38;4.30;74.50
610;DHT22;292;48.800;9.216;2022-12-10T12:15:21;4.30;74.70
610;DHT22;292;48.800;9.216;2022-12-10T12:17:54;4.40;74.70
610;DHT22;292;48.800;9.216;2022-12-10T12:23:49;4.40;74.40
610;DHT22;292;48.800;9.216;2022-12-10T12:26:23;4.40;74.10
610;DHT22;292;48.800;9.216;2022-12-10T12:28:59;4.40;73.90
610;DHT22;292;48.800;9.216;2022-12-10T12:31:33;4.40;73.80
610;DHT22;292;48.800;9.216;2022-12-10T12:34:05;4.40;73.80
610;DHT22;292;48.800;9.216;2022-12-10T12:36:34;4.50;73.70
610;DHT22;292;48.800;9.216;2022-12-10T12:39:11;4.50;73.40
610;DHT22;292;48.800;9.216;2022-12-10T12:41:45;4.50;73.10
610;DHT22;292;48.800;9.216;2022-12-10T12:44:17;4.50;72.90
610;DHT22;292;48.800;9.216;2022-12-10T12:46:49;4.40;72.80
610;DHT22;292;48.800;9.216;2022-12-10T12:49:21;4.40;72.60
610;DHT22;292;48.800;9.216;2022-12-10T12:51:56;4.50;72.40
610;DHT22;292;48.800;9.216;2022-12-10T12:54:28;4.50;72.40
610;DHT22;292;48.800;9.216;2022-12-10T12:57:01;4.50;72.20
610;DHT22;292;48.800;9.216;2022-12-10T12:59:45;4.60;72.10
610;DHT22;292;48.800;9.216;2022-12-10T13:02:42;4.60;71.90
610;DHT22;292;48.800;9.216;2022-12-10T13:05:18;4.70;71.80
610;DHT22;292;48.800;9.216;2022-12-10T13:08:15;4.70;71.80
610;DHT22;292;48.800;9.216;2022-12-10T13:10:56;4.80;71.50
610;DHT22;292;48.800;9.216;2022-12-10T13:13:27;4.80;71.20
610;DHT22;292;48.800;9.216;2022-12-10T13:15:55;4.80;71.20
610;DHT22;292;48.800;9.216;2022-12-10T13:18:35;4.80;70.90
610;DHT22;292;48.800;9.216;2022-12-10T13:21:28;4.80;70.80
610;DHT22;292;48.800;9.216;2022-12-10T13:24:10;4.90;70.50
610;DHT22;292;48.800;9.216;2022-12-10T13:27:03;4.90;70.20
610;DHT22;292;48.800;9.216;2022-12-10T13:29:44;4.90;70.20
610;DHT22;292;48.800;9.216;2022-12-10T13:32:16;4.90;70.20
610;DHT22;292;48.800;9.216;2022-12-10T13:34:44;4.90;70.20
610;DHT22;292;48.800;9.216;2022-12-10T13:37:31;4.90;70.20
610;DHT22;292;48.800;9.216;2022-12-10T13:40:15;4.90;70.20
610;DHT22;292;48.800;9.216;2022-12-10T13:42:57;5.00;70.30
610;DHT22;292;48.800;9.216;2022-12-10T13:45:42;5.00;70.30
610;DHT22;292;48.800;9.216;2022-12-10T13:48:28;5.00;70.20
610;DHT22;292;48.800;9.216;2022-12-10T13:51:21;4.90;70.60
610;DHT22;292;48.800;9.216;2022-12-10T13:54:01;4.90;70.60
610;DHT22;292;48.800;9.216;2022-12-10T13:56:35;4.80;70.90
610;DHT22;292;48.800;9.216;2022-12-10T13:59:21;4.70;71.50
610;DHT22;292;48.800;9.216;2022-12-10T14:02:03;4.50;71.90
610;DHT22;292;48.800;9.216;2022-12-10T14:05:03;4.40;72.40
610;DHT22;292;48.800;9.216;2022-12-10T14:07:38;4.20;73.10
610;DHT22;292;48.800;9.216;2022-12-10T14:10:10;4.10;73.50
610;DHT22;292;48.800;9.216;2022-12-10T14:12:41;4.00;74.10
610;DHT22;292;48.800;9.216;2022-12-10T14:15:16;4.00;74.50
610;DHT22;292;48.800;9.216;2022-12-10T14:17:45;3.90;74.50
610;DHT22;292;48.800;9.216;2022-12-10T14:20:17;3.90;74.80
610;DHT22;292;48.800;9.216;2022-12-10T14:22:47;3.70;75.10
610;DHT22;292;48.800;9.216;2022-12-10T14:25:17;3.70;75.40
610;DHT22;292;48.800;9.216;2022-12-10T14:27:46;3.70;75.50
610;DHT22;292;48.800;9.216;2022-12-10T14:30:21;3.60;75.80
610;DHT22;292;48.800;9.216;2022-12-10T14:32:50;3.70;76.00
610;DHT22;292;48.800;9.216;2022-12-10T14:35:20;3.60;75.80
610;DHT22;292;48.800;9.216;2022-12-10T14:37:49;3.60;76.20
610;DHT22;292;48.800;9.216;2022-12-10T14:40:21;3.60;76.10
610;DHT22;292;48.800;9.216;2022-12-10T14:42:55;3.60;76.20
610;DHT22;292;48.800;9.216;2022-12-10T14:45:40;3.60;76.20
610;DHT22;292;48.800;9.216;2022-12-10T14:48:11;3.60;76.40
610;DHT22;292;48.800;9.216;2022-12-10T14:50:39;3.50;76.40
610;DHT22;292;48.800;9.216;2022-12-10T14:53:13;3.60;76.40
610;DHT22;292;48.800;9.216;2022-12-10T14:55:42;3.50;76.50
610;DHT22;292;48.800;9.216;2022-12-10T14:58:13;3.50;76.40
610;DHT22;292;48.800;9.216;2022-12-10T15:00:46;3.50;76.40
610;DHT22;292;48.800;9.216;2022-12-10T15:03:24;3.40;76.50
610;DHT22;292;48.800;9.216;2022-12-10T15:05:56;3.40;76.70
610;DHT22;292;48.800;9.216;2022-12-10T15:08:27;3.30;76.70
610;DHT22;292;48.800;9.216;2022-12-10T15:10:57;3.30;77.00
610;DHT22;292;48.800;9.216;2022-12-10T15:13:34;3.40;76.80
610;DHT22;292;48.800;9.216;2022-12-10T15:16:04;3.40;77.00
610;DHT22;292;48.800;9.216;2022-12-10T15:18:37;3.40;76.80
610;DHT22;292;48.800;9.216;2022-12-10T15:21:08;3.40;76.80
610;DHT22;292;48.800;9.216;2022-12-10T15:23:40;3.50;76.80
610;DHT22;292;48.800;9.216;2022-12-10T15:26:17;3.50;76.70
610;DHT22;292;48.800;9.216;2022-12-10T15:28:45;3.50;76.70
610;DHT22;292;48.800;9.216;2022-12-10T15:31:21;3.50;76.80
610;DHT22;292;48.800;9.216;2022-12-10T15:33:51;3.50;76.50
610;DHT22;292;48.800;9.216;2022-12-10T15:36:25;3.50;76.80
610;DHT22;292;48.800;9.216;2022-12-10T15:38:54;3.50;76.80
610;DHT22;292;48.800;9.216;2022-12-10T15:41:24;3.60;76.50
610;DHT22;292;48.800;9.216;2022-12-10T15:44:00;3.60;76.50
610;DHT22;292;48.800;9.216;2022-12-10T15:46:32;3.60;76.70
610;DHT22;292;48.800;9.216;2022-12-10T15:48:59;3.60;76.70
610;DHT22;292;48.800;9.216;2022-12-10T15:51:26;3.60;76.70
610;DHT22;292;48.800;9.216;2022-12-10T15:53:54;3.60;76.50
610;DHT22;292;48.800;9.216;2022-12-10T15:56:21;3.60;76.50
610;DHT22;292;48.800;9.216;2022-12-10T15:58:48;3.60;76.40
610;DHT22;292;48.800;9.216;2022-12-10T16:01:15;3.60;76.20
610;DHT22;292;48.800;9.216;2022-12-10T16:03:44;3.50;76.40
610;DHT22;292;48.800;9.216;2022-12-10T16:06:14;3.50;76.40
610;DHT22;292;48.800;9.216;2022-12-10T16:08:41;3.50;76.20
610;DHT22;292;48.800;9.216;2022-12-10T16:11:15;3.50;76.10
610;DHT22;292;48.800;9.216;2022-12-10T16:13:48;3.50;76.10
610;DHT22;292;48.800;9.216;2022-12-10T16:16:16;3.50;76.00
610;DHT22;292;48.800;9.216;2022-12-10T16:18:45;3.50;75.80
610;DHT22;292;48.800;9.216;2022-12-10T16:21:13;3.50;75.70
610;DHT22;292;48.800;9.216;2022-12-10T16:23:41;3.50;75.80
610;DHT22;292;48.800;9.216;2022-12-10T16:26:20;3.50;75.70
610;DHT22;292;48.800;9.216;2022-12-10T16:28:49;3.50;75.50
610;DHT22;292;48.800;9.216;2022-12-10T16:31:18;3.50;75.40
610;DHT22;292;48.800;9.216;2022-12-10T16:33:48;3.50;75.20
610;DHT22;292;48.800;9.216;2022-12-10T16:36:17;3.50;75.10
610;DHT22;292;48.800;9.216;2022-12-10T16:38:45;3.40;75.10
610;DHT22;292;48.800;9.216;2022-12-10T16:41:16;3.50;75.10
610;DHT22;292;48.800;9.216;2022-12-10T16:43:44;3.50;75.00
610;DHT22;292;48.800;9.216;2022-12-10T16:46:14;3.50;75.00
610;DHT22;292;48.800;9.216;2022-12-10T16:48:41;3.50;74.70
610;DHT22;292;48.800;9.216;2022-12-10T16:51:15;3.50;74.80
610;DHT22;292;48.800;9.216;2022-12-10T16:53:44;3.50;75.00
610;DHT22;292;48.800;9.216;2022-12-10T16:56:13;3.50;74.80
610;DHT22;292;48.800;9.216;2022-12-10T16:58:41;3.40;74.70
610;DHT22;292;48.800;9.216;2022-12-10T17:01:16;3.30;74.70
610;DHT22;292;48.800;9.216;2022-12-10T17:03:44;3.30;75.00
610;DHT22;292;48.800;9.216;2022-12-10T17:06:13;3.20;74.80
610;DHT22;292;48.800;9.216;2022-12-10T17:08:40;3.20;75.10
610;DHT22;292;48.800;9.216;2022-12-10T17:11:14;3.30;75.10
610;DHT22;292;48.800;9.216;2022-12-10T17:13:59;3.30;75.10
610;DHT22;292;48.800;9.216;2022-12-10T17:16:26;3.30;75.00
610;DHT22;292;48.800;9.216;2022-12-10T17:18:54;3.20;75.10
610;DHT22;292;48.800;9.216;2022-12-10T17:21:26;3.20;75.10
610;DHT22;292;48.800;9.216;2022-12-10T17:23:56;3.20;75.10
610;DHT22;292;48.800;9.216;2022-12-10T17:26:27;3.20;75.10
610;DHT22;292;48.800;9.216;2022-12-10T17:28:58;3.20;75.40
610;DHT22;292;48.800;9.216;2022-12-10T17:31:26;3.20;75.40
610;DHT22;292;48.800;9.216;2022-12-10T17:33:54;3.20;75.20
610;DHT22;292;48.800;9.216;2022-12-10T17:36:23;3.20;75.50
610;DHT22;292;48.800;9.216;2022-12-10T17:38:51;3.20;75.40
610;DHT22;292;48.800;9.216;2022-12-10T17:41:18;3.30;75.50
610;DHT22;292;48.800;9.216;2022-12-10T17:43:47;3.30;75.50